sensor_id;sensor_type;location;lat;lon;timestamp;temperature;humidity
16732;DHT22;8484;50.904;9.192;2022-07-29T00:01:51;19.80;74.40
16732;DHT22;8484;50.904;9.192;2022-07-29T00:04:18;19.80;74.60
16732;DHT22;8484;50.904;9.192;2022-07-29T00:06:46;19.70;75.30
16732;DHT22;8484;50.904;9.192;2022-07-29T00:09:14;19.60;75.40
16732;DHT22;8484;50.904;9.192;2022-07-29T00:11:41;19.60;75.20
16732;DHT22;8484;50.904;9.192;2022-07-29T00:14:09;19.60;75.60
16732;DHT22;8484;50.904;9.192;2022-07-29T00:16:36;19.60;75.30
16732;DHT22;8484;50.904;9.192;2022-07-29T00:19:03;19.60;76.20
16732;DHT22;8484;50.904;9.192;2022-07-29T00:21:29;19.40;75.80
16732;DHT22;8484;50.904;9.192;2022-07-29T00:23:56;19.60;76.00
16732;DHT22;8484;50.904;9.192;2022-07-29T00:26:25;19.60;75.70
16732;DHT22;8484;50.904;9.192;2022-07-29T00:28:53;19.30;75.80
16732;DHT22;8484;50.904;9.192;2022-07-29T00:31:20;19.50;76.40
16732;DHT22;8484;50.904;9.192;2022-07-29T00:33:46;19.50;76.60
16732;DHT22;8484;50.904;9.192;2022-07-29T00:36:13;19.50;76.30
16732;DHT22;8484;50.904;9.192;2022-07-29T00:38:39;19.40;76.60
16732;DHT22;8484;50.904;9.192;2022-07-29T00:41:09;19.30;76.70
16732;DHT22;8484;50.904;9.192;2022-07-29T00:43:37;19.40;77.30
16732;DHT22;8484;50.904;9.192;2022-07-29T00:46:05;19.30;77.30
16732;DHT22;8484;50.904;9.192;2022-07-29T00:48:32;19.20;77.70
16732;DHT22;8484;50.904;9.192;2022-07-29T00:51:01;19.20;78.20
16732;DHT22;8484;50.904;9.192;2022-07-29T00:53:29;19.10;78.10
16732;DHT22;8484;50.904;9.192;2022-07-29T00:55:57;19.10;78.50
16732;DHT22;8484;50.904;9.192;2022-07-29T00:58:25;19.10;77.90
16732;DHT22;8484;50.904;9.192;2022-07-29T01:00:54;19.10;78.80
16732;DHT22;8484;50.904;9.192;2022-07-29T01:03:21;19.10;78.60
16732;DHT22;8484;50.904;9.192;2022-07-29T01:05:48;19.10;79.00
16732;DHT22;8484;50.904;9.192;2022-07-29T01:08:16;19.10;79.30
16732;DHT22;8484;50.904;9.192;2022-07-29T01:10:44;19.10;79.30
16732;DHT22;8484;50.904;9.192;2022-07-29T01:13:12;19.10;78.90
16732;DHT22;8484;50.904;9.192;2022-07-29T01:15:44;19.00;79.40
16732;DHT22;8484;50.904;9.192;2022-07-29T01:18:34;19.10;79.50
16732;DHT22;8484;50.904;9.192;2022-07-29T01:21:24;19.20;79.30
16732;DHT22;8484;50.904;9.192;2022-07-29T01:26:55;19.10;79.50
16732;DHT22;8484;50.904;9.192;2022-07-29T01:29:27;19.10;80.40
16732;DHT22;8484;50.904;9.192;2022-07-29T01:31:58;19.10;79.40
16732;DHT22;8484;50.904;9.192;2022-07-29T01:34:29;19.00;80.00
16732;DHT22;8484;50.904;9.192;2022-07-29T01:37:06;18.90;80.20
16732;DHT22;8484;50.904;9.192;2022-07-29T01:39:37;18.90;80.60
16732;DHT22;8484;50.904;9.192;2022-07-29T01:42:09;18.90;80.20
16732;DHT22;8484;50.904;9.192;2022-07-29T01:44:44;18.90;81.00
16732;DHT22;8484;50.904;9.192;2022-07-29T01:47:15;18.70;81.40
16732;DHT22;8484;50.904;9.192;2022-07-29T01:49:48;18.70;81.60
16732;DHT22;8484;50.904;9.192;2022-07-29T01:52:21;18.80;81.90
16732;DHT22;8484;50.904;9.192;2022-07-29T01:54:53;18.60;81.60
16732;DHT22;8484;50.904;9.192;2022-07-29T01:57:26;18.70;81.80
16732;DHT22;8484;50.904;9.192;2022-07-29T01:59:57;18.70;81.80
16732;DHT22;8484;50.904;9.192;2022-07-29T02:02:26;18.70;82.20
16732;DHT22;8484;50.904;9.192;2022-07-29T02:04:54;18.50;82.20
16732;DHT22;8484;50.904;9.192;2022-07-29T02:07:24;18.60;82.40
16732;DHT22;8484;50.904;9.192;2022-07-29T02:09:53;18.50;83.10
16732;DHT22;8484;50.904;9.192;2022-07-29T02:12:22;18.60;83.00
16732;DHT22;8484;50.904;9.192;2022-07-29T02:14:54;18.50;83.20
16732;DHT22;8484;50.904;9.192;2022-07-29T02:17:26;18.50;83.60
16732;DHT22;8484;50.904;9.192;2022-07-29T02:19:57;18.50;83.40
16732;DHT22;8484;50.904;9.192;2022-07-29T02:22:27;18.60;82.90
16732;DHT22;8484;50.904;9.192;2022-07-29T02:24:55;18.70;83.10
16732;DHT22;8484;50.904;9.192;2022-07-29T02:27:23;18.70;83.10
16732;DHT22;8484;50.904;9.192;2022-07-29T02:29:54;18.60;83.50
16732;DHT22;8484;50.904;9.192;2022-07-29T02:32:22;18.50;83.80
16732;DHT22;8484;50.904;9.192;2022-07-29T02:34:51;18.40;83.80
16732;DHT22;8484;50.904;9.192;2022-07-29T02:37:18;18.40;84.00
16732;DHT22;8484;50.904;9.192;2022-07-29T02:39:47;18.30;84.30
16732;DHT22;8484;50.904;9.192;2022-07-29T02:42:16;18.50;84.60
16732;DHT22;8484;50.904;9.192;2022-07-29T02:44:43;18.50;84.00
16732;DHT22;8484;50.904;9.192;2022-07-29T02:47:17;18.40;83.90
16732;DHT22;8484;50.904;9.192;2022-07-29T02:49:52;18.30;84.90
16732;DHT22;8484;50.904;9.192;2022-07-29T02:52:23;18.40;84.90
16732;DHT22;8484;50.904;9.192;2022-07-29T02:54:53;18.20;85.00
16732;DHT22;8484;50.904;9.192;2022-07-29T02:57:25;18.20;85.40
16732;DHT22;8484;50.904;9.192;2022-07-29T02:59:57;18.20;86.00
16732;DHT22;8484;50.904;9.192;2022-07-29T03:02:27;18.20;86.30
16732;DHT22;8484;50.904;9.192;2022-07-29T03:04:55;18.20;87.80
16732;DHT22;8484;50.904;9.192;2022-07-29T03:07:24;18.20;86.60
16732;DHT22;8484;50.904;9.192;2022-07-29T03:09:52;18.20;86.80
16732;DHT22;8484;50.904;9.192;2022-07-29T03:12:19;18.30;86.50
16732;DHT22;8484;50.904;9.192;2022-07-29T03:14:47;18.20;86.30
16732;DHT22;8484;50.904;9.192;2022-07-29T03:17:15;18.20;86.30
16732;DHT22;8484;50.904;9.192;2022-07-29T03:19:43;18.30;86.50
16732;DHT22;8484;50.904;9.192;2022-07-29T03:22:10;18.40;86.40
16732;DHT22;8484;50.904;9.192;2022-07-29T03:24:38;18.30;86.40
16732;DHT22;8484;50.904;9.192;2022-07-29T03:27:05;18.30;86.70
16732;DHT22;8484;50.904;9.192;2022-07-29T03:29:32;18.30;86.90
16732;DHT22;8484;50.904;9.192;2022-07-29T03:31:59;18.20;86.90
16732;DHT22;8484;50.904;9.192;2022-07-29T03:34:26;18.50;86.60
16732;DHT22;8484;50.904;9.192;2022-07-29T03:36:54;18.30;86.70
16732;DHT22;8484;50.904;9.192;2022-07-29T03:39:24;18.20;87.10
16732;DHT22;8484;50.904;9.192;2022-07-29T03:41:55;18.20;87.40
16732;DHT22;8484;50.904;9.192;2022-07-29T03:44:22;18.20;87.60
16732;DHT22;8484;50.904;9.192;2022-07-29T03:46:51;18.10;87.40
16732;DHT22;8484;50.904;9.192;2022-07-29T03:49:22;18.00;88.50
16732;DHT22;8484;50.904;9.192;2022-07-29T03:51:50;17.90;89.20
16732;DHT22;8484;50.904;9.192;2022-07-29T03:54:18;17.90;89.00
16732;DHT22;8484;50.904;9.192;2022-07-29T03:56:46;17.90;89.40
16732;DHT22;8484;50.904;9.192;2022-07-29T03:59:16;17.80;89.80
16732;DHT22;8484;50.904;9.192;2022-07-29T04:01:46;17.90;90.00
16732;DHT22;8484;50.904;9.192;2022-07-29T04:04:13;18.00;90.10
16732;DHT22;8484;50.904;9.192;2022-07-29T04:06:40;18.00;90.30
16732;DHT22;8484;50.904;9.192;2022-07-29T04:09:08;17.80;90.40
16732;DHT22;8484;50.904;9.192;2022-07-29T04:11:38;18.00;90.90
16732;DHT22;8484;50.904;9.192;2022-07-29T04:14:05;17.90;90.30
16732;DHT22;8484;50.904;9.192;2022-07-29T04:16:32;17.70;90.70
16732;DHT22;8484;50.904;9.192;2022-07-29T04:18:59;17.80;90.70
16732;DHT22;8484;50.904;9.192;2022-07-29T04:21:26;17.80;91.00
16732;DHT22;8484;50.904;9.192;2022-07-29T04:23:53;17.80;91.10
16732;DHT22;8484;50.904;9.192;2022-07-29T04:26:20;17.90;90.60
16732;DHT22;8484;50.904;9.192;2022-07-29T04:28:48;17.90;90.30
16732;DHT22;8484;50.904;9.192;2022-07-29T04:31:15;17.90;90.40
16732;DHT22;8484;50.904;9.192;2022-07-29T04:33:42;17.90;90.50
16732;DHT22;8484;50.904;9.192;2022-07-29T04:36:09;17.90;90.60
16732;DHT22;8484;50.904;9.192;2022-07-29T04:38:37;17.90;90.50
16732;DHT22;8484;50.904;9.192;2022-07-29T04:41:04;18.00;90.50
16732;DHT22;8484;50.904;9.192;2022-07-29T04:43:32;18.00;90.90
16732;DHT22;8484;50.904;9.192;2022-07-29T04:46:00;18.20;90.30
16732;DHT22;8484;50.904;9.192;2022-07-29T04:48:27;18.00;90.50
16732;DHT22;8484;50.904;9.192;2022-07-29T04:50:54;18.10;90.40
16732;DHT22;8484;50.904;9.192;2022-07-29T04:53:22;18.20;90.10
16732;DHT22;8484;50.904;9.192;2022-07-29T04:55:49;18.20;90.00
16732;DHT22;8484;50.904;9.192;2022-07-29T04:58:15;18.30;89.90
16732;DHT22;8484;50.904;9.192;2022-07-29T05:00:42;18.30;90.20
16732;DHT22;8484;50.904;9.192;2022-07-29T05:03:10;18.20;89.70
16732;DHT22;8484;50.904;9.192;2022-07-29T05:05:37;18.20;89.50
16732;DHT22;8484;50.904;9.192;2022-07-29T05:08:05;18.20;89.80
16732;DHT22;8484;50.904;9.192;2022-07-29T05:10:31;18.20;89.70
16732;DHT22;8484;50.904;9.192;2022-07-29T05:13:01;18.20;90.10
16732;DHT22;8484;50.904;9.192;2022-07-29T05:15:27;18.10;90.20
16732;DHT22;8484;50.904;9.192;2022-07-29T05:17:54;18.20;90.10
16732;DHT22;8484;50.904;9.192;2022-07-29T05:20:23;18.20;90.30
16732;DHT22;8484;50.904;9.192;2022-07-29T05:22:53;18.00;90.60
16732;DHT22;8484;50.904;9.192;2022-07-29T05:25:20;17.90;91.10
16732;DHT22;8484;50.904;9.192;2022-07-29T05:27:47;17.70;91.70
16732;DHT22;8484;50.904;9.192;2022-07-29T05:30:14;17.70;92.00
16732;DHT22;8484;50.904;9.192;2022-07-29T05:32:41;17.70;92.10
16732;DHT22;8484;50.904;9.192;2022-07-29T05:35:08;17.80;92.50
16732;DHT22;8484;50.904;9.192;2022-07-29T05:37:36;17.60;94.70
16732;DHT22;8484;50.904;9.192;2022-07-29T05:40:04;17.50;95.50
16732;DHT22;8484;50.904;9.192;2022-07-29T05:42:32;17.30;99.40
16732;DHT22;8484;50.904;9.192;2022-07-29T05:44:59;17.20;99.90
16732;DHT22;8484;50.904;9.192;2022-07-29T05:47:26;16.90;99.90
16732;DHT22;8484;50.904;9.192;2022-07-29T05:49:53;16.60;99.90
16732;DHT22;8484;50.904;9.192;2022-07-29T05:52:20;16.50;99.90
16732;DHT22;8484;50.904;9.192;2022-07-29T05:54:48;16.40;99.90
16732;DHT22;8484;50.904;9.192;2022-07-29T05:57:16;16.30;99.90
16732;DHT22;8484;50.904;9.192;2022-07-29T05:59:43;16.30;99.90
16732;DHT22;8484;50.904;9.192;2022-07-29T06:02:10;16.50;99.90
16732;DHT22;8484;50.904;9.192;2022-07-29T06:04:37;16.50;99.90
16732;DHT22;8484;50.904;9.192;2022-07-29T06:07:04;16.40;99.90
16732;DHT22;8484;50.904;9.192;2022-07-29T06:09:31;16.30;99.90
16732;DHT22;8484;50.904;9.192;2022-07-29T06:12:00;16.20;99.90
16732;DHT22;8484;50.904;9.192;2022-07-29T06:14:27;16.00;99.90
16732;DHT22;8484;50.904;9.192;2022-07-29T06:16:54;15.70;99.90
16732;DHT22;8484;50.904;9.192;2022-07-29T06:19:20;15.90;99.90
16732;DHT22;8484;50.904;9.192;2022-07-29T06:21:48;16.10;99.90
16732;DHT22;8484;50.904;9.192;2022-07-29T06:24:15;16.20;99.90
16732;DHT22;8484;50.904;9.192;2022-07-29T06:26:42;16.30;99.90
16732;DHT22;8484;50.904;9.192;2022-07-29T06:29:11;15.90;99.90
16732;DHT22;8484;50.904;9.192;2022-07-29T06:31:38;15.70;99.90
16732;DHT22;8484;50.904;9.192;2022-07-29T06:34:05;15.90;99.90
16732;DHT22;8484;50.904;9.192;2022-07-29T06:36:34;16.00;99.90
16732;DHT22;8484;50.904;9.192;2022-07-29T06:39:04;15.90;99.90
16732;DHT22;8484;50.904;9.192;2022-07-29T06:41:31;15.80;99.90
16732;DHT22;8484;50.904;9.192;2022-07-29T06:43:58;16.00;99.90
16732;DHT22;8484;50.904;9.192;2022-07-29T06:46:26;16.10;99.90
16732;DHT22;8484;50.904;9.192;2022-07-29T06:48:54;15.80;99.90
16732;DHT22;8484;50.904;9.192;2022-07-29T06:51:21;15.60;99.90
16732;DHT22;8484;50.904;9.192;2022-07-29T06:53:48;15.50;99.90
16732;DHT22;8484;50.904;9.192;2022-07-29T06:56:15;15.40;99.90
16732;DHT22;8484;50.904;9.192;2022-07-29T06:58:41;15.30;99.90
16732;DHT22;8484;50.904;9.192;2022-07-29T07:01:08;15.00;99.90
16732;DHT22;8484;50.904;9.192;2022-07-29T07:03:37;15.00;99.90
16732;DHT22;8484;50.904;9.192;2022-07-29T07:06:04;15.10;99.90
16732;DHT22;8484;50.904;9.192;2022-07-29T07:08:31;15.30;99.90
16732;DHT22;8484;50.904;9.192;2022-07-29T07:10:58;15.20;99.90
16732;DHT22;8484;50.904;9.192;2022-07-29T07:13:25;15.40;99.90
16732;DHT22;8484;50.904;9.192;2022-07-29T07:15:52;15.60;99.90
16732;DHT22;8484;50.904;9.192;2022-07-29T07:18:18;15.70;99.90
16732;DHT22;8484;50.904;9.192;2022-07-29T07:20:47;15.70;99.90
16732;DHT22;8484;50.904;9.192;2022-07-29T07:23:14;16.10;99.90
16732;DHT22;8484;50.904;9.192;2022-07-29T07:25:41;16.00;99.90
16732;DHT22;8484;50.904;9.192;2022-07-29T07:28:07;16.10;99.90
16732;DHT22;8484;50.904;9.192;2022-07-29T07:30:34;16.40;99.90
16732;DHT22;8484;50.904;9.192;2022-07-29T07:33:02;16.50;99.90
16732;DHT22;8484;50.904;9.192;2022-07-29T07:35:28;16.50;99.90
16732;DHT22;8484;50.904;9.192;2022-07-29T07:37:57;17.00;99.90
16732;DHT22;8484;50.904;9.192;2022-07-29T07:40:24;17.80;99.90
16732;DHT22;8484;50.904;9.192;2022-07-29T07:42:51;18.30;99.90
16732;DHT22;8484;50.904;9.192;2022-07-29T07:45:18;18.70;99.90
16732;DHT22;8484;50.904;9.192;2022-07-29T07:47:45;19.00;99.90
16732;DHT22;8484;50.904;9.192;2022-07-29T07:50:12;19.60;99.90
16732;DHT22;8484;50.904;9.192;2022-07-29T07:52:47;19.90;99.90
16732;DHT22;8484;50.904;9.192;2022-07-29T07:55:15;20.10;99.90
16732;DHT22;8484;50.904;9.192;2022-07-29T07:57:42;20.20;99.90
16732;DHT22;8484;50.904;9.192;2022-07-29T08:00:10;20.30;99.90
16732;DHT22;8484;50.904;9.192;2022-07-29T08:02:38;20.00;99.90
16732;DHT22;8484;50.904;9.192;2022-07-29T08:05:06;19.50;99.90
16732;DHT22;8484;50.904;9.192;2022-07-29T08:07:34;19.80;99.90
16732;DHT22;8484;50.904;9.192;2022-07-29T08:10:01;20.30;99.90
16732;DHT22;8484;50.904;9.192;2022-07-29T08:12:29;21.00;99.90
16732;DHT22;8484;50.904;9.192;2022-07-29T08:14:56;21.60;99.90
16732;DHT22;8484;50.904;9.192;2022-07-29T08:17:22;21.60;99.90
16732;DHT22;8484;50.904;9.192;2022-07-29T08:19:49;21.50;99.90
16732;DHT22;8484;50.904;9.192;2022-07-29T08:22:16;20.90;99.90
16732;DHT22;8484;50.904;9.192;2022-07-29T08:24:43;20.20;99.90
16732;DHT22;8484;50.904;9.192;2022-07-29T08:27:13;21.00;99.90
16732;DHT22;8484;50.904;9.192;2022-07-29T08:29:41;21.20;99.90
16732;DHT22;8484;50.904;9.192;2022-07-29T08:32:08;21.10;99.90
16732;DHT22;8484;50.904;9.192;2022-07-29T08:34:34;20.50;99.90
16732;DHT22;8484;50.904;9.192;2022-07-29T08:37:01;20.30;99.90
16732;DHT22;8484;50.904;9.192;2022-07-29T08:39:28;20.40;99.90
16732;DHT22;8484;50.904;9.192;2022-07-29T08:41:55;20.10;99.90
16732;DHT22;8484;50.904;9.192;2022-07-29T08:44:22;20.50;99.90
16732;DHT22;8484;50.904;9.192;2022-07-29T08:46:50;20.90;99.90
16732;DHT22;8484;50.904;9.192;2022-07-29T08:49:17;21.00;99.90
16732;DHT22;8484;50.904;9.192;2022-07-29T08:51:45;20.90;99.90
16732;DHT22;8484;50.904;9.192;2022-07-29T08:54:16;20.70;99.90
16732;DHT22;8484;50.904;9.192;2022-07-29T08:56:44;20.70;99.90
16732;DHT22;8484;50.904;9.192;2022-07-29T08:59:11;20.90;99.90
16732;DHT22;8484;50.904;9.192;2022-07-29T09:01:39;20.70;99.90
16732;DHT22;8484;50.904;9.192;2022-07-29T09:04:12;21.00;99.90
16732;DHT22;8484;50.904;9.192;2022-07-29T09:06:44;21.20;99.90
16732;DHT22;8484;50.904;9.192;2022-07-29T09:09:11;21.10;99.90
16732;DHT22;8484;50.904;9.192;2022-07-29T09:11:39;21.00;99.90
16732;DHT22;8484;50.904;9.192;2022-07-29T09:14:06;20.90;99.90
16732;DHT22;8484;50.904;9.192;2022-07-29T09:16:48;21.10;99.90
16732;DHT22;8484;50.904;9.192;2022-07-29T09:19:25;22.10;99.90
16732;DHT22;8484;50.904;9.192;2022-07-29T09:21:53;23.20;99.90
16732;DHT22;8484;50.904;9.192;2022-07-29T09:24:40;23.30;99.90
16732;DHT22;8484;50.904;9.192;2022-07-29T09:27:18;23.80;99.90
16732;DHT22;8484;50.904;9.192;2022-07-29T09:29:46;23.80;99.90
16732;DHT22;8484;50.904;9.192;2022-07-29T09:32:14;23.50;99.90
16732;DHT22;8484;50.904;9.192;2022-07-29T09:34:42;23.20;99.90
16732;DHT22;8484;50.904;9.192;2022-07-29T09:37:08;22.40;99.90
16732;DHT22;8484;50.904;9.192;2022-07-29T09:39:38;22.60;99.90
16732;DHT22;8484;50.904;9.192;2022-07-29T09:42:11;22.70;99.90
16732;DHT22;8484;50.904;9.192;2022-07-29T09:44:43;22.90;99.90
16732;DHT22;8484;50.904;9.192;2022-07-29T09:47:10;23.10;99.90
16732;DHT22;8484;50.904;9.192;2022-07-29T09:49:53;22.50;99.90
16732;DHT22;8484;50.904;9.192;2022-07-29T09:52:20;22.40;99.90
16732;DHT22;8484;50.904;9.192;2022-07-29T09:54:47;22.50;99.90
16732;DHT22;8484;50.904;9.192;2022-07-29T09:57:25;22.30;99.90
16732;DHT22;8484;50.904;9.192;2022-07-29T09:59:57;22.20;99.90
16732;DHT22;8484;50.904;9.192;2022-07-29T10:02:28;22.00;99.90
16732;DHT22;8484;50.904;9.192;2022-07-29T10:04:58;21.60;99.90
16732;DHT22;8484;50.904;9.192;2022-07-29T10:07:25;21.80;99.90
16732;DHT22;8484;50.904;9.192;2022-07-29T10:09:53;23.00;99.90
16732;DHT22;8484;50.904;9.192;2022-07-29T10:12:21;24.60;99.90
16732;DHT22;8484;50.904;9.192;2022-07-29T10:14:48;25.70;99.90
16732;DHT22;8484;50.904;9.192;2022-07-29T10:17:16;26.40;99.00
16732;DHT22;8484;50.904;9.192;2022-07-29T10:19:44;27.10;98.20
16732;DHT22;8484;50.904;9.192;2022-07-29T10:22:12;27.40;96.20
16732;DHT22;8484;50.904;9.192;2022-07-29T10:24:39;27.40;96.80
16732;DHT22;8484;50.904;9.192;2022-07-29T10:27:08;26.80;95.50
16732;DHT22;8484;50.904;9.192;2022-07-29T10:29:35;27.40;92.30
16732;DHT22;8484;50.904;9.192;2022-07-29T10:32:13;26.30;94.60
16732;DHT22;8484;50.904;9.192;2022-07-29T10:34:57;26.80;92.80
16732;DHT22;8484;50.904;9.192;2022-07-29T10:37:37;26.50;93.40
16732;DHT22;8484;50.904;9.192;2022-07-29T10:40:17;25.90;93.50
16732;DHT22;8484;50.904;9.192;2022-07-29T10:43:16;24.90;97.90
16732;DHT22;8484;50.904;9.192;2022-07-29T10:45:45;24.90;96.10
16732;DHT22;8484;50.904;9.192;2022-07-29T10:48:12;25.00;96.40
16732;DHT22;8484;50.904;9.192;2022-07-29T10:50:52;24.80;97.40
16732;DHT22;8484;50.904;9.192;2022-07-29T10:53:21;25.60;95.20
16732;DHT22;8484;50.904;9.192;2022-07-29T10:55:49;26.40;94.10
16732;DHT22;8484;50.904;9.192;2022-07-29T10:58:18;25.70;94.50
16732;DHT22;8484;50.904;9.192;2022-07-29T11:00:45;25.70;95.60
16732;DHT22;8484;50.904;9.192;2022-07-29T11:03:42;25.50;94.80
16732;DHT22;8484;50.904;9.192;2022-07-29T11:06:09;25.20;95.50
16732;DHT22;8484;50.904;9.192;2022-07-29T11:08:37;26.00;96.00
16732;DHT22;8484;50.904;9.192;2022-07-29T11:11:34;26.00;94.70
16732;DHT22;8484;50.904;9.192;2022-07-29T11:14:02;25.90;94.90
16732;DHT22;8484;50.904;9.192;2022-07-29T11:17:03;26.40;95.50
16732;DHT22;8484;50.904;9.192;2022-07-29T11:19:31;26.20;94.90
16732;DHT22;8484;50.904;9.192;2022-07-29T11:21:58;25.90;96.40
16732;DHT22;8484;50.904;9.192;2022-07-29T11:24:27;26.30;95.70
16732;DHT22;8484;50.904;9.192;2022-07-29T11:27:14;26.60;94.80
16732;DHT22;8484;50.904;9.192;2022-07-29T11:29:51;26.10;94.70
16732;DHT22;8484;50.904;9.192;2022-07-29T11:32:20;26.10;95.30
16732;DHT22;8484;50.904;9.192;2022-07-29T11:34:48;26.40;95.30
16732;DHT22;8484;50.904;9.192;2022-07-29T11:37:23;26.20;95.60
16732;DHT22;8484;50.904;9.192;2022-07-29T11:40:12;26.80;94.30
16732;DHT22;8484;50.904;9.192;2022-07-29T11:42:44;28.20;93.00
16732;DHT22;8484;50.904;9.192;2022-07-29T11:45:18;27.80;91.80
16732;DHT22;8484;50.904;9.192;2022-07-29T11:47:54;27.80;91.80
16732;DHT22;8484;50.904;9.192;2022-07-29T11:50:29;27.90;91.80
16732;DHT22;8484;50.904;9.192;2022-07-29T11:52:56;28.40;93.20
16732;DHT22;8484;50.904;9.192;2022-07-29T11:55:24;29.40;90.10
16732;DHT22;8484;50.904;9.192;2022-07-29T11:57:52;29.20;89.60
16732;DHT22;8484;50.904;9.192;2022-07-29T12:00:28;28.30;91.30
16732;DHT22;8484;50.904;9.192;2022-07-29T12:02:58;29.30;89.40
16732;DHT22;8484;50.904;9.192;2022-07-29T12:05:37;29.80;87.40
16732;DHT22;8484;50.904;9.192;2022-07-29T12:08:10;30.20;85.80
16732;DHT22;8484;50.904;9.192;2022-07-29T12:10:37;29.80;84.90
16732;DHT22;8484;50.904;9.192;2022-07-29T12:13:04;29.10;85.00
16732;DHT22;8484;50.904;9.192;2022-07-29T12:15:31;28.50;87.00
16732;DHT22;8484;50.904;9.192;2022-07-29T12:18:09;28.00;90.20
16732;DHT22;8484;50.904;9.192;2022-07-29T12:20:36;28.30;90.00
16732;DHT22;8484;50.904;9.192;2022-07-29T12:23:05;29.00;87.50
16732;DHT22;8484;50.904;9.192;2022-07-29T12:25:34;28.60;89.50
16732;DHT22;8484;50.904;9.192;2022-07-29T12:28:02;29.20;87.00
16732;DHT22;8484;50.904;9.192;2022-07-29T12:30:38;29.90;83.90
16732;DHT22;8484;50.904;9.192;2022-07-29T12:33:16;30.50;80.70
16732;DHT22;8484;50.904;9.192;2022-07-29T12:35:46;30.30;80.90
16732;DHT22;8484;50.904;9.192;2022-07-29T12:38:14;30.60;80.10
16732;DHT22;8484;50.904;9.192;2022-07-29T12:40:42;30.40;80.10
16732;DHT22;8484;50.904;9.192;2022-07-29T12:43:09;30.80;79.90
16732;DHT22;8484;50.904;9.192;2022-07-29T12:45:37;31.60;79.10
16732;DHT22;8484;50.904;9.192;2022-07-29T12:48:06;31.60;79.90
16732;DHT22;8484;50.904;9.192;2022-07-29T12:50:36;31.10;78.20
16732;DHT22;8484;50.904;9.192;2022-07-29T12:53:10;31.00;79.70
16732;DHT22;8484;50.904;9.192;2022-07-29T12:55:42;32.20;77.10
16732;DHT22;8484;50.904;9.192;2022-07-29T12:58:10;31.80;77.30
16732;DHT22;8484;50.904;9.192;2022-07-29T13:00:37;31.80;76.40
16732;DHT22;8484;50.904;9.192;2022-07-29T13:03:03;32.40;75.90
16732;DHT22;8484;50.904;9.192;2022-07-29T13:05:43;33.00;71.90
16732;DHT22;8484;50.904;9.192;2022-07-29T13:08:12;31.60;75.90
16732;DHT22;8484;50.904;9.192;2022-07-29T13:10:39;31.30;75.80
16732;DHT22;8484;50.904;9.192;2022-07-29T13:13:07;31.30;77.00
16732;DHT22;8484;50.904;9.192;2022-07-29T13:15:35;31.80;75.00
16732;DHT22;8484;50.904;9.192;2022-07-29T13:18:04;32.00;74.30
16732;DHT22;8484;50.904;9.192;2022-07-29T13:20:32;31.60;74.10
16732;DHT22;8484;50.904;9.192;2022-07-29T13:23:00;32.00;72.20
16732;DHT22;8484;50.904;9.192;2022-07-29T13:25:28;32.10;73.30
16732;DHT22;8484;50.904;9.192;2022-07-29T13:27:56;31.80;73.50
16732;DHT22;8484;50.904;9.192;2022-07-29T13:30:23;32.10;73.30
16732;DHT22;8484;50.904;9.192;2022-07-29T13:32:51;32.60;71.30
16732;DHT22;8484;50.904;9.192;2022-07-29T13:35:19;32.50;72.90
16732;DHT22;8484;50.904;9.192;2022-07-29T13:37:46;32.70;71.90
16732;DHT22;8484;50.904;9.192;2022-07-29T13:40:14;31.80;74.40
16732;DHT22;8484;50.904;9.192;2022-07-29T13:42:41;31.30;73.00
16732;DHT22;8484;50.904;9.192;2022-07-29T13:45:10;31.10;73.40
16732;DHT22;8484;50.904;9.192;2022-07-29T13:47:37;31.10;72.80
16732;DHT22;8484;50.904;9.192;2022-07-29T13:50:06;30.20;74.60
16732;DHT22;8484;50.904;9.192;2022-07-29T13:52:35;31.10;72.10
16732;DHT22;8484;50.904;9.192;2022-07-29T13:55:04;31.00;74.60
16732;DHT22;8484;50.904;9.192;2022-07-29T13:57:32;31.90;71.80
16732;DHT22;8484;50.904;9.192;2022-07-29T13:59:59;31.40;73.50
16732;DHT22;8484;50.904;9.192;2022-07-29T14:02:25;31.10;74.30
16732;DHT22;8484;50.904;9.192;2022-07-29T14:04:52;30.30;72.90
16732;DHT22;8484;50.904;9.192;2022-07-29T14:07:19;30.30;74.80
16732;DHT22;8484;50.904;9.192;2022-07-29T14:09:46;31.20;72.50
16732;DHT22;8484;50.904;9.192;2022-07-29T14:12:13;31.40;71.70
16732;DHT22;8484;50.904;9.192;2022-07-29T14:14:41;30.70;73.70
16732;DHT22;8484;50.904;9.192;2022-07-29T14:17:08;30.20;74.70
16732;DHT22;8484;50.904;9.192;2022-07-29T14:19:35;29.40;75.90
16732;DHT22;8484;50.904;9.192;2022-07-29T14:22:03;29.30;75.40
16732;DHT22;8484;50.904;9.192;2022-07-29T14:24:30;29.40;76.30
16732;DHT22;8484;50.904;9.192;2022-07-29T14:26:57;29.30;74.00
16732;DHT22;8484;50.904;9.192;2022-07-29T14:29:24;28.80;76.80
16732;DHT22;8484;50.904;9.192;2022-07-29T14:31:52;28.60;75.50
16732;DHT22;8484;50.904;9.192;2022-07-29T14:34:19;28.60;78.40
16732;DHT22;8484;50.904;9.192;2022-07-29T14:36:46;29.00;77.20
16732;DHT22;8484;50.904;9.192;2022-07-29T14:39:13;29.40;76.30
16732;DHT22;8484;50.904;9.192;2022-07-29T14:41:41;29.60;74.40
16732;DHT22;8484;50.904;9.192;2022-07-29T14:44:08;29.70;74.60
16732;DHT22;8484;50.904;9.192;2022-07-29T14:46:34;29.80;75.80
16732;DHT22;8484;50.904;9.192;2022-07-29T14:49:03;29.30;76.00
16732;DHT22;8484;50.904;9.192;2022-07-29T14:51:31;29.30;76.60
16732;DHT22;8484;50.904;9.192;2022-07-29T14:53:58;28.90;77.00
16732;DHT22;8484;50.904;9.192;2022-07-29T14:56:25;28.80;78.30
16732;DHT22;8484;50.904;9.192;2022-07-29T14:58:52;29.00;76.70
16732;DHT22;8484;50.904;9.192;2022-07-29T15:01:19;28.80;77.00
16732;DHT22;8484;50.904;9.192;2022-07-29T15:03:46;28.70;76.80
16732;DHT22;8484;50.904;9.192;2022-07-29T15:06:14;28.80;76.80
16732;DHT22;8484;50.904;9.192;2022-07-29T15:08:41;29.00;76.30
16732;DHT22;8484;50.904;9.192;2022-07-29T15:11:08;28.80;76.80
16732;DHT22;8484;50.904;9.192;2022-07-29T15:13:34;29.00;76.60
16732;DHT22;8484;50.904;9.192;2022-07-29T15:16:01;29.00;76.10
16732;DHT22;8484;50.904;9.192;2022-07-29T15:18:28;29.00;76.10
16732;DHT22;8484;50.904;9.192;2022-07-29T15:20:55;28.80;77.60
16732;DHT22;8484;50.904;9.192;2022-07-29T15:23:24;29.00;76.50
16732;DHT22;8484;50.904;9.192;2022-07-29T15:25:50;29.00;76.70
16732;DHT22;8484;50.904;9.192;2022-07-29T15:28:17;29.00;76.50
16732;DHT22;8484;50.904;9.192;2022-07-29T15:30:44;29.00;75.40
16732;DHT22;8484;50.904;9.192;2022-07-29T15:33:11;28.80;77.60
16732;DHT22;8484;50.904;9.192;2022-07-29T15:35:38;28.80;75.80
16732;DHT22;8484;50.904;9.192;2022-07-29T15:38:05;28.90;75.90
16732;DHT22;8484;50.904;9.192;2022-07-29T15:40:35;28.70;76.50
16732;DHT22;8484;50.904;9.192;2022-07-29T15:43:04;29.00;75.90
16732;DHT22;8484;50.904;9.192;2022-07-29T15:45:35;29.20;76.40
16732;DHT22;8484;50.904;9.192;2022-07-29T15:48:04;29.10;75.90
16732;DHT22;8484;50.904;9.192;2022-07-29T15:50:31;29.10;75.60
16732;DHT22;8484;50.904;9.192;2022-07-29T15:52:59;29.00;74.50
16732;DHT22;8484;50.904;9.192;2022-07-29T15:55:25;29.00;75.60
16732;DHT22;8484;50.904;9.192;2022-07-29T15:57:54;29.00;76.10
16732;DHT22;8484;50.904;9.192;2022-07-29T16:00:20;28.80;75.20